Aérodrome :
LOGIN :

S'inscrire | Disclaimer

   EN    FR    IT 

 










Légende :    VFR   VFR Marginal   IFR   IFR Intensif   IFR Très Intensif
Visi : 
Plafond : 
>= 8 km
>= 3000ft
5 à 8 km
1000 à 3000 ft
1500m à 5 km
500 à 1000 ft
800 à 1500m
200 à 500 ft
< 800m
< 200 ft
Symboles :   Orages  Brouillard  Fortes neiges  Fortes précipitations  Vent > 20 kt
SIGMETs :   Divers  Orages  Givrage  Turbulence  Onde Orograph.  Cendres Volcan.






- Altitude de l'aérodrome : 74 ft
- Code IATA : NDZ


ETMN - Cuxhaven Nordholz Sea AB

DERNIER METAR :
  • 200120Z 33018KT 9999 SCT008 BKN030 03/01 Q1015 BLU

METARs EXPIRÉS :
  • 200020Z 32023KT 9999 FEW012 BKN050 03/00 Q1015 BLU
  • 192320Z 31019KT 9999 SCT050 05/M02 Q1015 BLU+

TAF TAF ETMN
Valide du 19 à 18h jusqu'au 20 à 03h UTC


191715Z 1918/2003 26018G28KT 2000 DZRA SCT002 BKN004
BECMG 1918/1920 30018G32KT 8000 NSW SCT008 SCT015 BKN025
TEMPO 1919/2003 31020G35KT 3500 SHRA SCT005 BKN010TCU



MET'MAP, la Météo Aéronautique d'un coup d'oeil ! - Copyright ORBIFLY Décembre 2007 - Disclaimer

ORBIFLY MET'MAP TEAM :

Programmation & Développement : Alexandra Zaïnal
Sur une idée originale de : Baudouin d'Aumeries
Assistance à la programmation : Marc-Olivier Méhu
Soutien technique & logistique : Manuel Goepfert

Contact : metmap@orbifly.com




SOURCES & CREDITS :

   NOAA